Latest Weather Observations for Yamba

IDN60801

Issued at 3:22 pm EDT Saturday 29 February 2020 (issued every 10 minutes, with the page automatically refreshed every 10 minutes)

About weather observations | Map of weather stations | Latest weather observations for NSW | Other Formats
Station Details ID: 058012 Name: YAMBA PILOT STATION Lat: -29.43 Lon: 153.36 Height: 27.4 m
Data from the previous 72 hours. | See also: Recent months at Yamba
Date/Time
EDT
Temp
°C
App
Temp
°C
Dew
Point
°C
Rel
Hum
%
Delta-T
°C
Wind Press
QNH
hPa
Press
MSL
hPa
Rain since
9am
mm
Dir  Spd
km/h
Gust
km/h
Spd
kts
Gust
kts
29/03:00pm 27.0 27.6 21.3 71 3.8 S 20 30 11 16 1013.8 1013.6 0.0
29/02:30pm 26.9 26.8 20.7 69 4.1 S 22 33 12 18 1014.3 1014.1 0.0
29/02:00pm 26.9 27.1 21.4 72 3.7 S 22 33 12 18 1014.6 1014.4 0.0
29/01:30pm 26.8 26.6 21.3 72 3.7 S 24 35 13 19 1014.8 1014.6 0.0
29/01:00pm 26.8 26.6 20.6 69 4.1 S 22 33 12 18 1014.9 1014.7 0.0
29/12:30pm 26.6 26.2 20.9 71 3.8 S 24 35 13 19 1015.1 1014.9 0.0
29/12:00pm 26.2 25.8 21.0 73 3.4 S 24 37 13 20 1015.3 1015.1 0.0
29/11:30am 26.4 26.6 21.4 74 3.3 S 22 35 12 19 1015.6 1015.4 0.0
29/11:00am 26.0 26.0 21.0 74 3.3 S 22 35 12 19 1015.8 1015.6 0.0
29/10:30am 25.8 25.5 20.4 72 3.5 S 22 33 12 18 1015.7 1015.5 0.0
29/10:00am 25.5 26.0 21.2 77 2.8 SSW 20 35 11 19 1015.6 1015.4 0.0
29/09:30am 22.7 23.6 19.3 81 2.2 SSW 13 24 7 13 1015.6 1015.4 0.0
29/09:00am 22.4 22.1 19.2 82 2.0 SSW 19 26 10 14 1015.5 1015.3 8.6
29/08:30am 22.9 23.2 18.7 77 2.7 SSW 15 26 8 14 1015.3 1015.1 8.6
29/08:00am 22.7 22.9 18.5 77 2.6 SW 15 26 8 14 1015.0 1014.8 8.6
29/07:30am 22.2 22.0 18.4 79 2.4 SSW 17 26 9 14 1014.5 1014.3 8.6
29/07:00am 21.3 20.4 17.7 80 2.2 SSW 19 26 10 14 1014.1 1013.9 8.6
29/06:30am 21.6 20.7 17.8 79 2.4 SSW 19 28 10 15 1013.8 1013.6 8.6
29/06:00am 21.6 21.6 18.2 81 2.1 SSW 15 24 8 13 1013.7 1013.5 8.6
29/05:30am 21.5 22.8 18.5 83 1.9 SW 9 17 5 9 1013.5 1013.3 8.6
29/05:00am 21.7 22.8 18.9 84 1.8 SSW 11 20 6 11 1013.3 1013.1 8.6
29/04:30am 21.9 22.0 19.1 84 1.8 SSW 17 24 9 13 1013.1 1012.9 8.6
29/04:00am 22.0 21.6 19.0 83 1.9 SSW 19 28 10 15 1013.1 1012.9 8.6
29/03:30am 22.0 21.4 18.8 82 2.0 SSW 20 28 11 15 1013.1 1012.9 8.6
29/03:00am 22.0 22.0 19.0 83 1.9 SSW 17 28 9 15 1013.0 1012.8 8.6
29/02:30am 22.3 22.1 19.3 83 1.9 SSW 19 30 10 16 1013.2 1013.0 8.6
29/02:00am 22.5 22.6 19.9 85 1.7 SSW 19 28 10 15 1013.4 1013.2 8.6
29/01:30am 22.6 23.8 20.7 89 1.2 SSW 15 30 8 16 1013.5 1013.3 8.6
29/01:00am 22.6 24.1 21.2 92 0.9 SSW 15 24 8 13 1013.4 1013.2 8.6
29/12:30am 22.6 24.0 21.8 95 0.5 ESE 17 30 9 16 1013.3 1013.1 8.6
29/12:00am 21.8 21.2 20.6 93 0.8 ESE 24 35 13 19 1013.2 1013.0 8.6
 
Date/Time
EDT
Temp
°C
App
Temp
°C
Dew
Point
°C
Rel
Hum
%
Delta-T
°C
Wind Press
QNH
hPa
Press
MSL
hPa
Rain since
9am
mm
Dir  Spd
km/h
Gust
km/h
Spd
kts
Gust
kts
28/11:30pm 22.9 23.6 22.2 96 0.5 SSE 22 33 12 18 1013.2 1013.0 7.8
28/11:03pm 22.3 20.1 21.5 95 0.5 SSE 35 54 19 29 1013.2 1013.0 4.4
28/11:00pm 22.0 19.1 20.8 93 0.8 SSE 37 54 20 29 1013.2 1013.0 3.4
28/10:45pm 24.7 24.8 21.8 84 1.9 SE 24 48 13 26 1012.9 1012.7 0.0
28/10:30pm 25.5 27.3 22.6 84 2.0 SE 17 28 9 15 1012.6 1012.4 0.0
28/10:00pm 25.5 27.1 22.2 82 2.2 SE 17 26 9 14 1012.2 1012.1 0.0
28/09:30pm 25.6 27.5 22.7 84 2.0 SE 17 28 9 15 1012.2 1012.1 0.0
28/09:00pm 25.5 27.2 22.4 83 2.1 SE 17 24 9 13 1011.6 1011.5 0.0
28/08:30pm 25.6 27.0 22.5 83 2.1 ESE 19 28 10 15 1011.2 1011.1 0.0
28/08:00pm 25.8 27.3 23.1 85 1.8 ESE 20 28 11 15 1010.9 1010.8 0.0
28/07:30pm 25.6 27.0 22.9 85 1.8 ESE 20 32 11 17 1010.2 1010.1 0.0
28/07:00pm 25.7 27.6 22.8 84 2.0 SE 17 24 9 13 1009.8 1009.7 0.0
28/06:30pm 26.1 26.8 23.0 83 2.1 SE 24 30 13 16 1009.4 1009.3 0.0
28/06:00pm 26.6 26.5 22.9 80 2.5 SE 28 33 15 18 1009.0 1008.9 0.0
28/05:30pm 26.9 28.2 23.4 81 2.4 SE 22 32 12 17 1008.6 1008.5 0.0
28/05:00pm 27.3 29.1 23.5 80 2.6 SE 20 26 11 14 1008.4 1008.3 0.0
28/04:30pm 27.7 29.8 23.7 79 2.8 SE 19 26 10 14 1008.0 1007.9 0.0
28/04:00pm 27.8 30.3 23.8 79 2.8 SE 17 24 9 13 1007.9 1007.8 0.0
28/03:30pm 28.1 30.0 23.7 77 3.0 SE 20 28 11 15 1007.8 1007.7 0.0
28/03:00pm 28.0 29.6 23.8 78 2.9 SE 22 28 12 15 1007.9 1007.8 0.0
28/02:30pm 28.0 29.3 24.0 79 2.8 SE 24 30 13 16 1008.2 1008.1 0.0
28/02:00pm 27.9 29.1 23.9 79 2.8 SE 24 28 13 15 1008.3 1008.2 0.0
28/01:30pm 28.0 29.7 24.0 79 2.8 SE 22 28 12 15 1008.5 1008.4 0.0
28/01:00pm 28.4 30.5 23.8 76 3.2 SE 19 22 10 12 1008.6 1008.5 0.0
28/12:30pm 27.7 30.1 22.2 72 3.7 SE 13 19 7 10 1008.6 1008.5 0.0
28/12:00pm 27.9 30.2 22.8 74 3.5 SE 15 19 8 10 1008.9 1008.8 0.0
28/11:30am 28.2 31.2 24.0 78 2.9 SE 15 19 8 10 1008.9 1008.8 0.0
28/11:00am 27.6 29.9 21.4 69 4.1 SSW 11 17 6 9 1008.9 1008.8 0.0
28/10:30am 27.5 30.7 22.4 73 3.4 W 9 15 5 8 1008.8 1008.7 0.0
28/10:00am 26.7 30.0 22.5 78 2.8 W 9 15 5 8 1008.7 1008.6 0.0
28/09:30am 25.5 29.2 22.6 84 2.0 WSW 7 11 4 6 1008.6 1008.5 0.0
28/09:00am 24.5 27.4 21.8 85 1.8 W 9 13 5 7 1008.6 1008.5 0.0
28/08:30am 23.7 26.7 22.0 90 1.1 W 9 15 5 8 1008.5 1008.4 0.0
28/08:00am 22.9 26.0 22.1 95 0.5 W 9 15 5 8 1008.3 1008.2 0.0
28/07:30am 22.3 25.2 21.8 97 0.3 WNW 9 13 5 7 1008.1 1008.0 0.0
28/07:00am 21.8 24.9 21.5 98 0.2 W 7 11 4 6 1007.8 1007.7 0.0
28/06:30am 21.9 25.1 21.6 98 0.2 WNW 7 9 4 5 1007.6 1007.5 0.0
28/06:00am 21.9 25.0 21.4 97 0.3 WSW 7 11 4 6 1007.4 1007.3 0.0
28/05:30am 22.1 24.9 21.6 97 0.3 W 9 11 5 6 1007.1 1007.0 0.0
28/05:00am 22.1 25.5 21.6 97 0.3 WSW 6 9 3 5 1006.9 1006.8 0.0
28/04:30am 22.2 25.4 21.7 97 0.3 WNW 7 11 4 6 1007.0 1006.9 0.0
28/04:00am 22.4 25.6 21.7 96 0.5 W 7 9 4 5 1007.1 1007.0 0.0
28/03:30am 22.4 25.8 21.7 96 0.5 WSW 6 7 3 4 1007.0 1006.9 0.0
28/03:00am 22.5 25.7 21.7 95 0.5 WSW 7 13 4 7 1007.3 1007.2 0.0
28/02:30am 22.6 26.1 21.8 95 0.5 WSW 6 11 3 6 1007.5 1007.4 0.0
28/02:00am 22.9 26.4 22.1 95 0.5 W 7 11 4 6 1007.6 1007.5 0.0
28/01:30am 22.9 26.3 21.7 93 0.8 WSW 6 9 3 5 1007.9 1007.8 0.0
28/01:00am 23.0 26.2 21.6 92 0.9 W 7 9 4 5 1008.1 1008.0 0.0
28/12:30am 23.2 26.6 21.6 91 1.1 SW 6 9 3 5 1008.4 1008.3 0.0
28/12:00am 23.4 26.7 21.8 91 1.1 WSW 7 11 4 6 1008.5 1008.4 0.0
 
Date/Time
EDT
Temp
°C
App
Temp
°C
Dew
Point
°C
Rel
Hum
%
Delta-T
°C
Wind Press
QNH
hPa
Press
MSL
hPa
Rain since
9am
mm
Dir  Spd
km/h
Gust
km/h
Spd
kts
Gust
kts
27/11:30pm 23.6 26.5 21.7 89 1.3 SW 9 13 5 7 1008.6 1008.5 0.0
27/11:00pm 23.7 26.8 21.4 87 1.5 SW 7 11 4 6 1008.7 1008.6 0.0
27/10:30pm 23.8 26.9 21.5 87 1.5 WSW 7 13 4 7 1008.7 1008.6 0.0
27/10:00pm 24.0 27.1 21.5 86 1.7 SW 7 11 4 6 1008.6 1008.5 0.0
27/09:30pm 24.1 27.2 21.4 85 1.8 SW 7 11 4 6 1008.4 1008.3 0.0
27/09:00pm 24.3 27.0 21.4 84 1.9 SSW 9 13 5 7 1008.2 1008.1 0.0
27/08:30pm 24.5 27.6 21.4 83 2.0 SSW 7 9 4 5 1007.7 1007.6 0.0
27/08:00pm 24.6 27.6 21.9 85 1.8 SW 9 15 5 8 1008.0 1007.9 0.0
27/07:30pm 24.8 28.2 21.7 83 2.1 SSW 6 9 3 5 1007.2 1007.1 0.0
27/07:00pm 25.4 28.4 21.9 81 2.3 SSW 9 13 5 7 1007.5 1007.4 0.0
27/06:30pm 26.1 28.7 22.6 81 2.4 SSE 13 20 7 11 1007.5 1007.4 0.0
27/06:00pm 26.5 29.2 22.8 80 2.5 S 13 19 7 10 1007.5 1007.4 0.0
27/05:30pm 26.1 27.8 22.4 80 2.5 S 17 22 9 12 1007.4 1007.3 0.0
27/05:00pm 26.8 27.9 23.1 80 2.5 SSE 22 30 12 16 1007.0 1006.9 0.0
27/04:30pm 25.9 26.2 22.2 80 2.5 SSE 24 33 13 18 1006.9 1006.8 0.0
27/04:00pm 26.3 27.4 22.4 79 2.6 S 20 32 11 17 1007.3 1007.2 0.0
27/03:30pm 26.4 27.5 22.0 77 2.9 S 19 30 10 16 1007.3 1007.2 0.0
27/03:00pm 26.8 27.7 22.0 75 3.2 S 20 33 11 18 1007.6 1007.5 0.0
27/02:30pm 27.2 27.6 21.7 72 3.7 S 22 33 12 18 1007.8 1007.7 0.0
27/02:00pm 26.5 26.8 21.5 74 3.3 S 22 37 12 20 1007.6 1007.5 0.0
27/01:30pm 26.9 27.2 21.6 72 3.5 S 22 37 12 20 1008.0 1007.9 0.0
27/01:00pm 26.7 26.9 22.1 76 3.1 S 24 35 13 19 1008.4 1008.3 0.0
27/12:30pm 26.2 26.8 22.1 78 2.7 S 22 33 12 18 1008.5 1008.4 0.0
27/12:00pm 26.0 26.0 21.0 74 3.3 S 22 39 12 21 1008.9 1008.8 0.0
27/11:30am 25.9 26.1 21.3 76 3.0 S 22 33 12 18 1009.2 1009.1 0.0
27/11:00am 26.2 27.0 21.8 77 2.9 S 20 32 11 17 1009.4 1009.3 0.0
27/10:30am 26.0 27.0 22.1 79 2.6 S 20 32 11 17 1009.4 1009.3 0.0
27/10:00am 25.7 26.6 22.0 80 2.5 S 20 35 11 19 1009.2 1009.1 0.0
27/09:30am 25.2 25.7 21.9 82 2.2 S 22 33 12 18 1008.8 1008.7 0.0
27/09:00am 24.8 25.3 21.9 84 1.9 S 22 35 12 19 1008.9 1008.8 16.4
27/08:30am 24.7 26.0 22.4 87 1.5 S 19 33 10 18 1008.8 1008.7 16.4
27/08:00am 23.5 26.4 21.8 90 1.1 S 9 17 5 9 1008.7 1008.6 16.4
27/07:30am 22.3 24.7 20.9 92 0.9 SSW 9 13 5 7 1008.4 1008.3 16.4
27/07:00am 22.3 24.5 21.8 97 0.3 S 13 17 7 9 1008.1 1008.0 16.4
27/06:30am 21.7 24.9 21.2 97 0.3 W 6 13 3 7 1007.6 1007.5 16.4
27/06:00am 21.5 24.5 20.8 96 0.5 WNW 6 7 3 4 1006.5 1006.4 16.4
27/05:30am 21.6 24.4 20.9 96 0.5 W 7 9 4 5 1006.1 1006.0 16.4
27/05:00am 21.7 24.6 21.0 96 0.5 W 7 9 4 5 1006.3 1006.2 16.4
27/04:30am 21.8 25.6 21.0 95 0.5 SW 2 7 1 4 1006.4 1006.3 16.4
27/04:00am 21.5 24.2 20.3 93 0.8 SW 6 7 3 4 1006.5 1006.4 16.4
27/03:30am 21.7 24.5 20.5 93 0.8 W 6 9 3 5 1006.9 1006.8 16.4
27/03:00am 22.1 24.2 20.9 93 0.8 NW 11 17 6 9 1006.9 1006.8 16.4
27/02:30am 21.9 22.6 20.5 92 0.9 NNW 17 24 9 13 1006.5 1006.4 16.4
27/02:00am 22.0 23.0 20.3 90 1.1 NNW 15 20 8 11 1006.4 1006.3 16.4
27/01:30am 21.9 22.7 20.7 93 0.8 NNW 17 22 9 12 1006.7 1006.6 16.4
27/01:00am 21.6 22.1 20.8 95 0.5 WNW 19 26 10 14 1008.3 1008.2 16.4
27/12:30am 21.8 23.2 21.1 96 0.5 W 15 20 8 11 1009.3 1009.2 16.4
27/12:00am 21.7 23.8 21.0 96 0.5 W 11 17 6 9 1009.1 1009.0 16.4
 
Date/Time
EDT
Temp
°C
App
Temp
°C
Dew
Point
°C
Rel
Hum
%
Delta-T
°C
Wind Press
QNH
hPa
Press
MSL
hPa
Rain since
9am
mm
Dir  Spd
km/h
Gust
km/h
Spd
kts
Gust
kts
26/11:30pm 21.5 23.1 20.7 95 0.5 WNW 13 17 7 9 1009.1 1009.0 16.4
26/11:00pm 21.6 23.6 20.8 95 0.5 WSW 11 13 6 7 1008.9 1008.8 16.4
26/10:30pm 21.6 24.0 20.9 96 0.5 NNW 9 13 5 7 1009.0 1008.9 16.4
26/10:00pm 21.9 23.7 21.1 95 0.5 NNW 13 22 7 12 1008.5 1008.4 16.4
26/09:30pm 22.0 23.4 21.0 94 0.7 NNW 15 22 8 12 1008.7 1008.6 16.4
26/09:00pm 22.1 23.1 21.1 94 0.7 NNW 17 24 9 13 1008.3 1008.2 16.4
26/08:30pm 22.4 24.5 21.7 96 0.5 N 13 22 7 12 1007.7 1007.6 16.4
26/08:00pm 24.4 28.3 24.2 99 0.1 N 11 24 6 13 1006.7 1006.6 16.2
26/07:30pm 24.9 28.7 24.0 95 0.6 N 11 28 6 15 1008.0 1007.9 9.8
26/07:00pm 26.0 28.2 24.0 89 1.4 NE 19 28 10 15 1007.1 1007.0 0.2
26/06:30pm 26.2 28.6 24.2 89 1.4 NE 19 32 10 17 1005.6 1005.5 0.2
26/06:00pm 26.9 29.4 24.5 87 1.7 NE 19 28 10 15 1006.4 1006.3 0.2
26/05:30pm 27.3 29.7 24.2 83 2.1 NNE 19 30 10 16 1006.1 1006.0 0.2
26/05:00pm 28.4 31.4 24.6 80 2.7 NNE 17 30 9 16 1006.2 1006.1 0.2
26/04:30pm 28.9 32.1 24.9 79 2.8 NNE 17 28 9 15 1006.2 1006.1 0.2
26/04:00pm 29.0 32.2 25.0 79 2.8 NNE 17 26 9 14 1006.2 1006.1 0.2
26/03:30pm 28.9 31.8 24.5 77 3.1 NNE 17 24 9 13 1006.8 1006.7 0.2

Other formats

Comma delimited format used in spreadsheet applications
http://www.bom.gov.au/fwo/IDN60801/IDN60801.94589.axf

JavaScript Object Notation format (JSON) in row-major order
http://www.bom.gov.au/fwo/IDN60801/IDN60801.94589.json

Data quality

Most of these data are generated automatically and are frequently updated. Quality checks on data are not normally performed. It is possible for incorrect values to appear. Refer to information at About Latest Weather Observations and please check the disclaimer before using these data.